createdAt,value
2022-12-20T00:00:21.378Z,39.28
2022-12-20T00:01:53.297Z,40.03
2022-12-20T00:03:26.077Z,39.22
2022-12-20T00:05:00.223Z,42.47
2022-12-20T00:06:33.300Z,41.58
2022-12-20T00:08:06.610Z,42.90
2022-12-20T00:09:39.383Z,41.75
2022-12-20T00:11:11.508Z,41.45
2022-12-20T00:12:44.230Z,40.75
2022-12-20T00:14:16.955Z,40.78
2022-12-20T00:15:49.670Z,41.15
2022-12-20T00:17:22.983Z,40.22
2022-12-20T00:18:56.869Z,40.33
2022-12-20T00:20:31.221Z,39.58
2022-12-20T00:22:04.087Z,39.63
2022-12-20T00:23:38.242Z,39.53
2022-12-20T00:25:11.185Z,39.42
2022-12-20T00:26:43.884Z,37.97
2022-12-20T00:28:15.680Z,37.30
2022-12-20T00:29:48.399Z,37.47
2022-12-20T00:31:23.176Z,38.38
2022-12-20T00:32:55.988Z,36.42
2022-12-20T00:34:28.753Z,37.67
2022-12-20T00:36:01.972Z,39.03
2022-12-20T00:37:34.997Z,38.03
2022-12-20T00:39:07.734Z,39.25
2022-12-20T00:40:40.547Z,38.38
2022-12-20T00:42:13.293Z,39.08
2022-12-20T00:43:45.106Z,35.92
2022-12-20T00:45:17.961Z,36.90
2022-12-20T00:46:50.761Z,35.38
2022-12-20T00:48:24.030Z,36.42
2022-12-20T00:49:56.753Z,34.42
2022-12-20T00:51:32.916Z,35.53
2022-12-20T00:53:05.678Z,37.33
2022-12-20T00:54:38.505Z,36.10
2022-12-20T00:56:11.706Z,34.83
2022-12-20T00:57:44.462Z,38.50
2022-12-20T00:59:17.173Z,38.92
2022-12-20T01:00:55.776Z,38.72
2022-12-20T01:02:29.295Z,39.35
2022-12-20T01:04:02.726Z,38.25
2022-12-20T01:05:35.643Z,37.72
2022-12-20T01:07:10.888Z,37.58
2022-12-20T01:08:44.242Z,38.90
2022-12-20T01:10:18.151Z,38.85
2022-12-20T01:11:50.865Z,37.25
2022-12-20T01:13:22.605Z,37.90
2022-12-20T01:14:55.352Z,38.22
2022-12-20T01:16:32.293Z,37.17
2022-12-20T01:18:04.249Z,37.80
2022-12-20T01:19:36.955Z,36.83
2022-12-20T01:21:11.374Z,37.38
2022-12-20T01:22:47.645Z,37.75
2022-12-20T01:24:21.572Z,36.58
2022-12-20T01:25:53.335Z,37.13
2022-12-20T01:27:26.081Z,36.05
2022-12-20T01:29:00.250Z,37.08
2022-12-20T01:30:33.073Z,36.88
2022-12-20T01:32:06.090Z,37.15
2022-12-20T01:33:38.010Z,38.30
2022-12-20T01:35:10.943Z,38.45
2022-12-20T01:36:43.794Z,36.55
2022-12-20T01:38:16.882Z,36.50
2022-12-20T01:39:49.640Z,35.78
2022-12-20T01:41:22.985Z,36.55
2022-12-20T01:42:55.713Z,37.50
2022-12-20T01:44:58.249Z,37.55
2022-12-20T01:46:32.821Z,36.15
2022-12-20T01:48:06.235Z,35.33
2022-12-20T01:49:43.134Z,37.42
2022-12-20T01:51:16.180Z,37.97
2022-12-20T01:52:49.326Z,38.15
2022-12-20T01:54:26.985Z,37.40
2022-12-20T01:56:04.763Z,36.90
2022-12-20T01:57:43.305Z,38.55
2022-12-20T01:59:16.204Z,38.45
2022-12-20T02:00:49.503Z,38.17
2022-12-20T02:02:21.502Z,37.92
2022-12-20T02:03:56.222Z,37.28
2022-12-20T02:05:29.092Z,38.30
2022-12-20T02:07:03.608Z,35.90
2022-12-20T02:08:36.374Z,37.28
2022-12-20T02:10:12.704Z,36.80
2022-12-20T02:12:04.031Z,36.72
2022-12-20T02:13:44.064Z,35.63
2022-12-20T02:15:38.621Z,36.28
2022-12-20T02:17:19.428Z,37.03
2022-12-20T02:18:57.957Z,37.13
2022-12-20T02:20:49.177Z,36.78
2022-12-20T02:22:30.488Z,36.50
2022-12-20T02:24:43.489Z,38.30
2022-12-20T02:26:40.029Z,36.72
2022-12-20T02:28:30.955Z,36.78
2022-12-20T02:30:20.787Z,37.35
2022-12-20T02:32:00.363Z,36.35
2022-12-20T02:33:33.241Z,38.05
2022-12-20T02:35:08.482Z,38.17
2022-12-20T02:36:41.368Z,40.30
2022-12-20T02:38:29.984Z,38.25
2022-12-20T02:40:05.322Z,36.47
2022-12-20T02:41:40.120Z,36.65
2022-12-20T02:43:27.610Z,38.08
2022-12-20T02:45:16.140Z,36.10
2022-12-20T02:46:50.528Z,37.00
2022-12-20T02:48:24.748Z,36.13
2022-12-20T02:49:58.292Z,38.03
2022-12-20T02:51:33.079Z,38.85
2022-12-20T02:53:07.616Z,36.78
2022-12-20T02:54:39.571Z,36.33
2022-12-20T02:56:16.949Z,36.88
2022-12-20T02:58:00.308Z,36.35
2022-12-20T02:59:39.464Z,36.95
2022-12-20T03:01:17.372Z,38.70
2022-12-20T03:03:10.499Z,37.95
2022-12-20T03:04:44.512Z,38.05
2022-12-20T03:06:17.498Z,37.70
2022-12-20T03:07:49.348Z,38.35
2022-12-20T03:09:22.092Z,39.22
2022-12-20T03:10:55.838Z,37.33
2022-12-20T03:12:28.567Z,39.30
2022-12-20T03:14:01.299Z,37.95
2022-12-20T03:15:34.061Z,39.47
2022-12-20T03:17:07.617Z,39.35
2022-12-20T03:18:41.776Z,39.85
2022-12-20T03:20:14.605Z,39.83
2022-12-20T03:21:47.671Z,40.25
2022-12-20T03:23:21.939Z,37.53
2022-12-20T03:24:53.709Z,39.17
2022-12-20T03:26:26.446Z,39.10
2022-12-20T03:27:59.241Z,40.47
2022-12-20T03:29:32.024Z,38.50
2022-12-20T03:31:03.866Z,37.78
2022-12-20T03:32:36.659Z,38.03
2022-12-20T03:34:10.754Z,38.13
2022-12-20T03:35:43.567Z,39.58
2022-12-20T03:37:16.285Z,37.45
2022-12-20T03:38:49.011Z,36.53
2022-12-20T03:40:21.766Z,36.67
2022-12-20T03:41:54.495Z,35.70
2022-12-20T03:43:27.242Z,37.50
2022-12-20T03:44:59.986Z,35.92
2022-12-20T03:46:32.829Z,36.25
2022-12-20T03:48:05.662Z,37.50
2022-12-20T03:49:39.724Z,37.45
2022-12-20T03:51:12.572Z,35.05
2022-12-20T03:52:44.376Z,36.00
2022-12-20T03:54:17.143Z,33.50
2022-12-20T03:55:49.844Z,34.38
2022-12-20T03:57:22.601Z,33.53
2022-12-20T03:58:54.354Z,35.08
2022-12-20T04:00:27.257Z,37.70
2022-12-20T04:01:59.139Z,38.20
2022-12-20T04:03:32.026Z,38.75
2022-12-20T04:05:07.388Z,37.88
2022-12-20T04:06:40.125Z,37.17
2022-12-20T04:08:12.836Z,36.53
2022-12-20T04:09:45.578Z,36.72
2022-12-20T04:11:17.374Z,36.47
2022-12-20T04:12:50.111Z,36.92
2022-12-20T04:14:22.838Z,37.35
2022-12-20T04:16:00.274Z,37.90
2022-12-20T04:17:33.838Z,36.78
2022-12-20T04:19:06.884Z,39.83
2022-12-20T04:20:40.051Z,39.20
2022-12-20T04:22:12.778Z,39.28
2022-12-20T04:23:44.538Z,37.88
2022-12-20T04:25:19.677Z,37.42
2022-12-20T04:26:52.441Z,37.33
2022-12-20T04:28:25.174Z,36.78
2022-12-20T04:29:57.919Z,35.75
2022-12-20T04:31:30.715Z,34.50
2022-12-20T04:33:04.266Z,35.22
2022-12-20T04:34:36.998Z,35.15
2022-12-20T04:36:10.386Z,42.03
2022-12-20T04:37:43.226Z,36.22
2022-12-20T04:39:16.025Z,34.42
2022-12-20T04:40:49.756Z,34.88
2022-12-20T04:42:22.539Z,33.08
2022-12-20T04:43:56.941Z,32.03
2022-12-20T04:45:29.710Z,30.92
2022-12-20T04:47:02.474Z,32.88
2022-12-20T04:48:56.492Z,36.42
2022-12-20T04:50:28.401Z,35.58
2022-12-20T04:52:22.594Z,34.10
2022-12-20T04:53:55.180Z,34.10
2022-12-20T04:55:26.972Z,33.38
2022-12-20T04:56:59.726Z,34.70
2022-12-20T04:58:31.809Z,33.95
2022-12-20T05:00:05.446Z,36.05
2022-12-20T05:01:38.288Z,35.90
2022-12-20T05:03:10.262Z,34.10
2022-12-20T05:04:43.204Z,36.00
2022-12-20T05:06:16.600Z,37.40
2022-12-20T05:07:51.243Z,36.25
2022-12-20T05:09:24.055Z,37.08
2022-12-20T05:10:56.809Z,37.15
2022-12-20T05:12:29.555Z,37.35
2022-12-20T05:14:02.307Z,35.95
2022-12-20T05:15:34.666Z,36.47
2022-12-20T05:17:07.447Z,37.00
2022-12-20T05:18:46.480Z,37.53
2022-12-20T05:20:20.064Z,35.90
2022-12-20T05:22:10.429Z,37.97
2022-12-20T05:24:02.175Z,36.53
2022-12-20T05:25:52.566Z,37.60
2022-12-20T05:27:25.351Z,37.03
2022-12-20T05:28:58.214Z,37.65
2022-12-20T05:30:29.977Z,37.33
2022-12-20T05:32:02.708Z,37.92
2022-12-20T05:33:35.624Z,39.92
2022-12-20T05:35:09.088Z,39.08
2022-12-20T05:36:41.845Z,38.88
2022-12-20T05:38:13.644Z,37.85
2022-12-20T05:39:47.715Z,40.00
2022-12-20T05:41:20.002Z,37.83
2022-12-20T05:42:52.754Z,38.85
2022-12-20T05:44:26.020Z,37.22
2022-12-20T05:45:58.817Z,38.63
2022-12-20T05:47:33.724Z,37.00
2022-12-20T05:49:06.430Z,37.72
2022-12-20T05:50:39.152Z,37.83
2022-12-20T05:52:11.865Z,36.30
2022-12-20T05:53:44.671Z,38.15
2022-12-20T05:55:17.999Z,37.22
2022-12-20T05:56:50.776Z,37.63
2022-12-20T05:58:23.481Z,37.53
2022-12-20T05:59:56.201Z,33.80
2022-12-20T06:01:28.966Z,33.25
2022-12-20T06:03:01.948Z,31.58
2022-12-20T06:04:35.193Z,31.52
2022-12-20T06:06:13.925Z,30.88
2022-12-20T06:07:47.860Z,30.60
2022-12-20T06:09:20.775Z,32.80
2022-12-20T06:10:55.140Z,35.72
2022-12-20T06:12:27.888Z,39.60
2022-12-20T06:14:00.625Z,41.25
2022-12-20T06:15:33.374Z,41.88
2022-12-20T06:17:06.150Z,44.22
2022-12-20T06:18:38.861Z,42.95
2022-12-20T06:20:13.160Z,40.45
2022-12-20T06:21:45.964Z,40.40
2022-12-20T06:23:18.829Z,39.80
2022-12-20T06:24:51.598Z,39.70
2022-12-20T06:26:25.676Z,42.35
2022-12-20T06:27:58.817Z,41.40
2022-12-20T06:29:31.590Z,39.45
2022-12-20T06:31:04.369Z,41.83
2022-12-20T06:32:37.143Z,39.58
2022-12-20T06:34:09.885Z,39.17
2022-12-20T06:35:42.607Z,39.17
2022-12-20T06:37:15.352Z,39.53
2022-12-20T06:38:48.137Z,39.67
2022-12-20T06:40:21.036Z,38.83
2022-12-20T06:41:55.112Z,40.65
2022-12-20T06:43:27.857Z,41.50
2022-12-20T06:45:00.591Z,39.28
2022-12-20T06:46:33.514Z,40.25
2022-12-20T06:48:06.564Z,38.25
2022-12-20T06:49:39.278Z,39.35
2022-12-20T06:51:12.438Z,37.83
2022-12-20T06:52:45.197Z,39.13
2022-12-20T06:54:17.907Z,38.33
2022-12-20T06:55:51.168Z,36.10
2022-12-20T06:57:25.274Z,37.55
2022-12-20T06:58:57.977Z,37.30
2022-12-20T07:00:30.831Z,39.20
2022-12-20T07:02:04.418Z,36.83
2022-12-20T07:03:38.214Z,36.03
2022-12-20T07:05:11.095Z,36.03
2022-12-20T07:06:43.819Z,35.72
2022-12-20T07:08:16.547Z,37.03
2022-12-20T07:09:49.308Z,36.53
2022-12-20T07:11:22.075Z,35.50
2022-12-20T07:12:56.133Z,35.50
2022-12-20T07:14:29.125Z,36.25
2022-12-20T07:16:03.322Z,35.42
2022-12-20T07:17:36.204Z,37.55
2022-12-20T07:19:11.807Z,36.67
2022-12-20T07:20:44.604Z,34.95
2022-12-20T07:22:17.340Z,35.17
2022-12-20T07:23:50.126Z,36.17
2022-12-20T07:25:22.904Z,37.20
2022-12-20T07:26:55.868Z,38.15
2022-12-20T07:28:30.060Z,36.17
2022-12-20T07:30:02.920Z,37.92
2022-12-20T07:31:35.775Z,38.13
2022-12-20T07:33:08.527Z,38.67
2022-12-20T07:34:41.477Z,37.17
2022-12-20T07:36:15.835Z,38.85
2022-12-20T07:37:48.567Z,37.30
2022-12-20T07:39:21.277Z,38.40
2022-12-20T07:40:53.984Z,39.45
2022-12-20T07:42:33.582Z,38.88
2022-12-20T07:44:10.418Z,42.03
2022-12-20T07:45:43.174Z,39.67
2022-12-20T07:47:16.419Z,41.53
2022-12-20T07:48:49.139Z,40.00
2022-12-20T07:50:21.949Z,41.20
2022-12-20T07:51:58.052Z,40.95
2022-12-20T07:53:32.450Z,42.05
2022-12-20T07:55:07.947Z,42.17
2022-12-20T07:56:45.992Z,40.58
2022-12-20T07:58:19.882Z,41.92
2022-12-20T07:59:58.087Z,39.90
2022-12-20T08:01:32.259Z,43.40
2022-12-20T08:03:13.312Z,41.10
2022-12-20T08:04:46.556Z,41.53
2022-12-20T08:06:20.222Z,38.70
2022-12-20T08:07:59.269Z,41.92
2022-12-20T08:09:37.278Z,42.38
2022-12-20T08:11:11.239Z,42.38
2022-12-20T08:12:46.066Z,40.70
2022-12-20T08:14:20.367Z,40.53
2022-12-20T08:15:54.476Z,39.75
2022-12-20T08:17:27.208Z,39.50
2022-12-20T08:18:59.930Z,39.28
2022-12-20T08:20:32.790Z,38.97
2022-12-20T08:22:06.160Z,36.85
2022-12-20T08:23:38.921Z,38.85
2022-12-20T08:25:12.434Z,38.92
2022-12-20T08:26:45.163Z,37.05
2022-12-20T08:28:17.904Z,37.25
2022-12-20T08:29:50.740Z,35.33
2022-12-20T08:31:24.979Z,36.92
2022-12-20T08:32:57.866Z,35.70
2022-12-20T08:34:31.131Z,34.78
2022-12-20T08:36:06.832Z,40.30
2022-12-20T08:37:39.569Z,40.22
2022-12-20T08:39:12.347Z,43.05
2022-12-20T08:40:45.375Z,44.40
2022-12-20T08:42:18.115Z,54.53
2022-12-20T08:43:50.878Z,46.95
2022-12-20T08:45:23.627Z,45.30
2022-12-20T08:46:57.805Z,44.00
2022-12-20T08:48:31.530Z,46.33
2022-12-20T08:50:04.460Z,43.63
2022-12-20T08:51:37.500Z,43.20
2022-12-20T08:53:10.275Z,44.72
2022-12-20T08:54:43.026Z,45.75
2022-12-20T08:56:18.136Z,44.15
2022-12-20T08:57:50.875Z,44.67
2022-12-20T08:59:23.645Z,42.53
2022-12-20T09:01:04.559Z,41.55
2022-12-20T09:02:41.270Z,46.42
2022-12-20T09:04:15.277Z,45.58
2022-12-20T09:05:48.749Z,46.20
2022-12-20T09:07:21.484Z,45.92
2022-12-20T09:08:55.537Z,46.42
2022-12-20T09:10:28.268Z,48.05
2022-12-20T09:12:01.300Z,50.10
2022-12-20T09:13:37.988Z,50.80
2022-12-20T09:15:16.103Z,46.95
2022-12-20T09:16:49.112Z,44.08
2022-12-20T09:18:23.161Z,41.42
2022-12-20T09:19:55.945Z,41.38
2022-12-20T09:21:29.385Z,39.67
2022-12-20T09:23:02.115Z,40.78
2022-12-20T09:24:34.830Z,38.67
2022-12-20T09:26:09.661Z,37.63
2022-12-20T09:27:42.380Z,37.38
2022-12-20T09:29:19.444Z,36.45
2022-12-20T09:30:59.415Z,36.00
2022-12-20T09:32:32.140Z,36.47
2022-12-20T09:34:06.495Z,34.58
2022-12-20T09:35:45.926Z,35.10
2022-12-20T09:37:18.612Z,34.65
2022-12-20T09:38:52.043Z,33.10
2022-12-20T09:40:27.681Z,33.40
2022-12-20T09:42:01.005Z,32.28
2022-12-20T09:43:34.800Z,32.90
2022-12-20T09:45:10.610Z,34.10
2022-12-20T09:46:44.678Z,31.65
2022-12-20T09:48:20.764Z,35.53
2022-12-20T09:49:56.874Z,36.70
2022-12-20T09:51:44.447Z,42.40
2022-12-20T09:53:33.095Z,42.20
2022-12-20T09:55:17.344Z,40.10
2022-12-20T09:56:58.928Z,39.60
2022-12-20T09:58:58.673Z,38.95
2022-12-20T10:00:37.394Z,39.72
2022-12-20T10:02:35.552Z,40.60
2022-12-20T10:04:07.643Z,39.17
2022-12-20T10:05:51.056Z,37.47
2022-12-20T10:07:38.957Z,38.85
2022-12-20T10:09:31.124Z,37.88
2022-12-20T10:11:11.263Z,37.42
2022-12-20T10:12:51.016Z,37.88
2022-12-20T10:14:37.157Z,38.15
2022-12-20T10:16:22.993Z,39.97
2022-12-20T10:18:12.364Z,40.40
2022-12-20T10:20:01.688Z,43.95
2022-12-20T10:21:42.710Z,43.78
2022-12-20T10:23:27.911Z,46.88
2022-12-20T10:25:16.733Z,44.60
2022-12-20T10:26:51.346Z,45.45
2022-12-20T10:28:28.633Z,43.50
2022-12-20T10:30:01.329Z,47.13
2022-12-20T10:31:35.836Z,48.67
2022-12-20T10:33:17.787Z,48.42
2022-12-20T10:34:56.434Z,45.60
2022-12-20T10:36:30.820Z,45.97
2022-12-20T10:38:08.708Z,45.83
2022-12-20T10:39:43.655Z,48.47
2022-12-20T10:41:22.210Z,48.42
2022-12-20T10:42:56.533Z,50.30
2022-12-20T10:44:32.744Z,52.45
2022-12-20T10:46:08.344Z,49.83
2022-12-20T10:47:44.069Z,53.15
2022-12-20T10:49:27.776Z,50.60
2022-12-20T10:51:03.328Z,48.72
2022-12-20T10:52:36.060Z,47.58
2022-12-20T10:54:24.483Z,48.97
2022-12-20T10:56:14.605Z,46.65
2022-12-20T10:57:47.408Z,46.22
2022-12-20T10:59:31.386Z,47.05
2022-12-20T11:01:14.721Z,49.95
2022-12-20T11:03:04.490Z,47.10
2022-12-20T11:04:40.347Z,45.15
2022-12-20T11:06:18.249Z,48.45
2022-12-20T11:09:57.244Z,47.70
2022-12-20T11:11:30.068Z,47.78
2022-12-20T11:13:04.266Z,47.83
2022-12-20T11:14:39.749Z,49.03
2022-12-20T11:16:30.859Z,46.90
2022-12-20T11:18:09.607Z,49.70
2022-12-20T11:19:59.860Z,48.28
2022-12-20T11:21:40.916Z,46.35
2022-12-20T11:23:23.118Z,47.85
2022-12-20T11:25:06.989Z,48.55
2022-12-20T11:27:03.126Z,46.58
2022-12-20T11:28:52.600Z,47.67
2022-12-20T11:30:29.989Z,47.40
2022-12-20T11:32:10.069Z,47.10
2022-12-20T11:33:53.591Z,47.35
2022-12-20T11:35:33.511Z,47.25
2022-12-20T11:37:19.467Z,46.17
2022-12-20T11:38:59.789Z,44.75
2022-12-20T11:40:38.844Z,44.08
2022-12-20T11:42:23.057Z,42.03
2022-12-20T11:46:16.527Z,41.60
2022-12-20T11:48:21.730Z,41.08
2022-12-20T11:50:12.956Z,42.90
2022-12-20T11:51:48.200Z,42.28
2022-12-20T11:53:27.311Z,42.67
2022-12-20T11:55:08.758Z,41.97
2022-12-20T11:56:45.356Z,41.10
2022-12-20T11:58:22.766Z,42.47
2022-12-20T11:59:59.617Z,40.70
2022-12-20T12:01:36.859Z,44.25
2022-12-20T12:03:15.171Z,42.13
2022-12-20T12:04:52.212Z,42.17
2022-12-20T12:06:29.758Z,41.08
2022-12-20T12:08:10.962Z,41.60
2022-12-20T12:09:56.408Z,40.42
2022-12-20T12:12:05.020Z,40.72
2022-12-20T12:13:29.397Z,41.40
2022-12-20T12:15:12.742Z,40.45
2022-12-20T12:16:53.347Z,41.50
2022-12-20T12:18:29.946Z,41.42
2022-12-20T12:20:19.834Z,39.55
2022-12-20T12:21:58.954Z,41.03
2022-12-20T12:23:37.932Z,41.38
2022-12-20T12:25:16.401Z,40.22
2022-12-20T12:26:49.135Z,39.95
2022-12-20T12:28:23.319Z,40.72
2022-12-20T12:29:59.551Z,40.38
2022-12-20T12:31:39.840Z,41.75
2022-12-20T12:33:23.974Z,38.67
2022-12-20T12:35:11.846Z,42.80
2022-12-20T12:37:15.102Z,39.55
2022-12-20T12:39:15.939Z,38.45
2022-12-20T12:41:10.950Z,41.60
2022-12-20T12:43:17.113Z,40.38
2022-12-20T12:44:53.716Z,38.50
2022-12-20T12:46:30.785Z,40.63
2022-12-20T12:48:08.960Z,41.08
2022-12-20T12:49:42.469Z,41.47
2022-12-20T12:51:16.852Z,39.90
2022-12-20T12:52:51.663Z,40.95
2022-12-20T12:54:27.199Z,41.33
2022-12-20T12:56:19.328Z,41.55
2022-12-20T12:57:57.203Z,42.97
2022-12-20T12:59:51.786Z,42.53
2022-12-20T13:01:53.703Z,40.95
2022-12-20T13:03:47.485Z,40.72
2022-12-20T13:05:36.938Z,40.78
2022-12-20T13:07:26.600Z,40.10
2022-12-20T13:09:20.707Z,41.92
2022-12-20T13:11:01.503Z,42.42
2022-12-20T13:12:57.236Z,43.65
2022-12-20T13:14:54.213Z,41.15
2022-12-20T13:17:09.500Z,41.85
2022-12-20T13:18:26.876Z,40.58
2022-12-20T13:19:59.929Z,40.85
2022-12-20T13:21:37.482Z,39.35
2022-12-20T13:23:17.191Z,38.90
2022-12-20T13:24:56.102Z,37.05
2022-12-20T13:26:52.406Z,35.45
2022-12-20T13:28:47.068Z,33.67
2022-12-20T13:30:28.248Z,35.17
2022-12-20T13:32:01.213Z,35.90
2022-12-20T13:33:43.922Z,36.58
2022-12-20T13:35:31.287Z,35.63
2022-12-20T13:37:04.010Z,35.40
2022-12-20T13:38:53.605Z,33.97
2022-12-20T13:40:35.530Z,32.10
2022-12-20T13:42:31.610Z,30.77
2022-12-20T13:44:29.411Z,30.75
2022-12-20T13:46:14.608Z,32.42
2022-12-20T13:47:53.757Z,31.23
2022-12-20T13:49:30.686Z,28.40
2022-12-20T13:51:03.682Z,28.77
2022-12-20T13:52:42.885Z,29.58
2022-12-20T13:54:26.647Z,29.58
2022-12-20T13:56:00.047Z,29.05
2022-12-20T13:57:40.119Z,29.45
2022-12-20T13:59:17.471Z,28.75
2022-12-20T14:00:51.611Z,28.02
2022-12-20T14:02:27.624Z,26.95
2022-12-20T14:04:04.712Z,28.13
2022-12-20T14:05:39.772Z,29.08
2022-12-20T14:07:17.103Z,28.20
2022-12-20T14:08:51.707Z,28.17
2022-12-20T14:10:27.524Z,28.65
2022-12-20T14:12:06.038Z,28.35
2022-12-20T14:13:38.754Z,30.77
2022-12-20T14:15:23.122Z,28.58
2022-12-20T14:16:55.923Z,29.35
2022-12-20T14:18:28.683Z,30.25
2022-12-20T14:20:23.367Z,29.75
2022-12-20T14:21:57.466Z,30.13
2022-12-20T14:23:37.115Z,29.67
2022-12-20T14:25:13.146Z,33.15
2022-12-20T14:26:49.611Z,34.60
2022-12-20T14:28:31.306Z,34.22
2022-12-20T14:30:05.652Z,34.55
2022-12-20T14:31:41.778Z,36.05
2022-12-20T14:33:22.542Z,36.10
2022-12-20T14:34:55.381Z,36.85
2022-12-20T14:36:28.095Z,38.10
2022-12-20T14:38:04.126Z,40.30
2022-12-20T14:39:36.869Z,50.38
2022-12-20T14:41:30.300Z,45.75
2022-12-20T14:43:15.849Z,38.10
2022-12-20T14:44:48.633Z,40.88
2022-12-20T14:46:22.498Z,43.55
2022-12-20T14:48:02.913Z,41.80
2022-12-20T14:49:38.503Z,41.65
2022-12-20T14:51:11.636Z,41.33
2022-12-20T14:52:44.969Z,41.13
2022-12-20T14:54:56.834Z,40.63
2022-12-20T14:56:16.625Z,39.05
2022-12-20T14:57:51.957Z,38.65
2022-12-20T14:59:28.755Z,39.03
2022-12-20T15:01:03.678Z,37.80
2022-12-20T15:02:40.755Z,38.00
2022-12-20T15:04:25.851Z,39.15
2022-12-20T15:06:00.196Z,39.90
2022-12-20T15:07:33.133Z,38.22
2022-12-20T15:09:06.180Z,38.35
2022-12-20T15:10:42.662Z,40.33
2022-12-20T15:12:15.368Z,44.95
2022-12-20T15:13:49.863Z,39.85
2022-12-20T15:15:29.461Z,39.72
2022-12-20T15:17:03.635Z,40.95
2022-12-20T15:18:36.375Z,37.83
2022-12-20T15:20:12.973Z,40.58
2022-12-20T15:21:46.524Z,45.13
2022-12-20T15:23:21.508Z,40.50
2022-12-20T15:24:54.247Z,39.67
2022-12-20T15:26:29.257Z,40.10
2022-12-20T15:28:01.975Z,39.50
2022-12-20T15:29:35.713Z,39.85
2022-12-20T15:31:11.463Z,38.85
2022-12-20T15:32:55.105Z,38.65
2022-12-20T15:34:31.303Z,36.25
2022-12-20T15:36:04.320Z,37.10
2022-12-20T15:37:37.090Z,39.53
2022-12-20T15:39:14.539Z,37.53
2022-12-20T15:40:49.624Z,59.45
2022-12-20T15:42:25.276Z,54.00
2022-12-20T15:43:59.757Z,46.72
2022-12-20T15:45:33.683Z,46.53
2022-12-20T15:47:06.546Z,47.92
2022-12-20T15:48:39.315Z,44.85
2022-12-20T15:50:13.581Z,48.85
2022-12-20T15:51:48.413Z,44.92
2022-12-20T15:53:24.187Z,44.05
2022-12-20T15:54:56.931Z,42.28
2022-12-20T15:56:30.095Z,40.10
2022-12-20T15:58:04.163Z,40.85
2022-12-20T16:01:40.378Z,42.70
2022-12-20T16:03:20.286Z,41.53
2022-12-20T16:04:53.290Z,43.33
2022-12-20T16:06:26.048Z,42.05
2022-12-20T16:07:58.943Z,42.78
2022-12-20T16:09:34.457Z,44.70
2022-12-20T16:11:07.866Z,43.72
2022-12-20T16:12:41.275Z,43.50
2022-12-20T16:14:18.331Z,42.92
2022-12-20T16:15:51.565Z,42.67
2022-12-20T16:17:25.006Z,43.72
2022-12-20T16:18:58.174Z,42.58
2022-12-20T16:20:31.482Z,42.20
2022-12-20T16:22:04.218Z,39.90
2022-12-20T16:23:36.950Z,39.17
2022-12-20T16:25:23.555Z,38.28
2022-12-20T16:26:56.287Z,38.13
2022-12-20T16:28:28.961Z,37.58
2022-12-20T16:30:03.019Z,38.67
2022-12-20T16:31:37.260Z,36.75
2022-12-20T16:33:20.507Z,37.65
2022-12-20T16:34:53.592Z,37.47
2022-12-20T16:36:26.783Z,35.95
2022-12-20T16:38:01.189Z,36.63
2022-12-20T16:39:33.934Z,34.53
2022-12-20T16:41:13.760Z,30.98
2022-12-20T16:42:47.176Z,32.28
2022-12-20T16:44:19.970Z,32.20
2022-12-20T16:45:53.992Z,31.25
2022-12-20T16:47:27.009Z,31.45
2022-12-20T16:49:01.213Z,28.92
2022-12-20T16:50:33.903Z,29.95
2022-12-20T16:52:07.347Z,31.00
2022-12-20T16:54:02.713Z,28.58
2022-12-20T16:55:39.464Z,35.90
2022-12-20T16:57:12.756Z,37.50
2022-12-20T16:59:18.069Z,39.50
2022-12-20T17:00:38.198Z,41.00
2022-12-20T17:02:22.762Z,51.65
2022-12-20T17:03:55.839Z,56.80
2022-12-20T17:05:31.344Z,57.13
2022-12-20T17:07:04.060Z,54.15
2022-12-20T17:08:51.924Z,55.45
2022-12-20T17:10:25.937Z,50.42
2022-12-20T17:11:59.993Z,49.38
2022-12-20T17:13:33.173Z,47.15
2022-12-20T17:15:06.854Z,24.30
2022-12-20T17:16:39.671Z,23.38
2022-12-20T17:18:14.434Z,22.60
2022-12-20T17:19:47.425Z,20.23
2022-12-20T17:21:23.887Z,21.23
2022-12-20T17:22:57.111Z,23.30
2022-12-20T17:24:30.085Z,22.35
2022-12-20T17:26:02.798Z,21.00
2022-12-20T17:27:35.523Z,20.83
2022-12-20T17:29:08.269Z,20.27
2022-12-20T17:30:41.070Z,33.15
2022-12-20T17:32:20.763Z,37.30
2022-12-20T17:33:55.120Z,43.78
2022-12-20T17:35:30.385Z,40.38
2022-12-20T17:37:03.530Z,40.33
2022-12-20T17:38:36.226Z,40.40
2022-12-20T17:40:13.411Z,42.10
2022-12-20T17:41:46.987Z,37.63
2022-12-20T17:43:19.731Z,38.67
2022-12-20T17:44:52.409Z,37.08
2022-12-20T17:46:25.951Z,35.95
2022-12-20T17:47:59.151Z,34.85
2022-12-20T17:49:33.223Z,31.15
2022-12-20T17:51:15.377Z,34.15
2022-12-20T17:52:48.909Z,32.10
2022-12-20T17:54:23.743Z,26.83
2022-12-20T17:55:56.449Z,30.20
2022-12-20T17:57:29.161Z,29.55
2022-12-20T17:59:04.694Z,35.97
2022-12-20T18:00:39.525Z,36.53
2022-12-20T18:02:21.373Z,26.35
2022-12-20T18:04:04.885Z,26.52
2022-12-20T18:05:41.227Z,28.15
2022-12-20T18:07:13.920Z,27.27
2022-12-20T18:08:50.241Z,27.00
2022-12-20T18:10:23.981Z,28.63
2022-12-20T18:11:56.664Z,25.70
2022-12-20T18:13:29.374Z,27.45
2022-12-20T18:15:02.265Z,30.95
2022-12-20T18:16:35.778Z,42.15
2022-12-20T18:18:08.550Z,46.75
2022-12-20T18:19:41.510Z,45.22
2022-12-20T18:21:19.141Z,45.95
2022-12-20T18:22:51.930Z,45.00
2022-12-20T18:24:24.659Z,46.38
2022-12-20T18:26:06.499Z,43.30
2022-12-20T18:27:40.915Z,41.75
2022-12-20T18:29:14.495Z,41.03
2022-12-20T18:30:47.262Z,44.35
2022-12-20T18:32:19.995Z,43.25
2022-12-20T18:33:57.724Z,42.47
2022-12-20T18:35:31.350Z,43.22
2022-12-20T18:37:05.802Z,43.28
2022-12-20T18:38:40.578Z,44.15
2022-12-20T18:40:13.381Z,42.55
2022-12-20T18:41:47.564Z,45.78
2022-12-20T18:43:20.386Z,44.05
2022-12-20T18:44:53.664Z,42.63
2022-12-20T18:46:26.515Z,43.75
2022-12-20T18:47:59.730Z,41.88
2022-12-20T18:49:33.070Z,41.25
2022-12-20T18:51:06.374Z,45.08
2022-12-20T18:52:42.353Z,42.80
2022-12-20T18:54:17.031Z,63.13
2022-12-20T18:55:49.758Z,49.05
2022-12-20T18:57:22.475Z,46.20
2022-12-20T18:58:55.995Z,43.00
2022-12-20T19:00:28.717Z,42.05
2022-12-20T19:02:01.851Z,45.78
2022-12-20T19:03:34.973Z,45.40
2022-12-20T19:05:08.737Z,43.60
2022-12-20T19:06:41.738Z,41.85
2022-12-20T19:08:15.808Z,42.45
2022-12-20T19:09:48.574Z,44.63
2022-12-20T19:11:23.328Z,53.88
2022-12-20T19:13:00.837Z,50.05
2022-12-20T19:14:36.600Z,50.42
2022-12-20T19:16:12.987Z,46.63
2022-12-20T19:17:45.886Z,46.42
2022-12-20T19:19:18.736Z,46.75
2022-12-20T19:20:51.497Z,45.70
2022-12-20T19:22:24.271Z,46.47
2022-12-20T19:24:00.441Z,45.30
2022-12-20T19:25:35.408Z,46.97
2022-12-20T19:27:09.521Z,44.45
2022-12-20T19:28:43.254Z,44.63
2022-12-20T19:30:16.348Z,42.97
2022-12-20T19:31:49.389Z,42.60
2022-12-20T19:33:23.480Z,43.38
2022-12-20T19:34:56.220Z,42.85
2022-12-20T19:36:31.233Z,43.45
2022-12-20T19:38:04.117Z,42.60
2022-12-20T19:39:38.419Z,40.85
2022-12-20T19:41:11.524Z,42.58
2022-12-20T19:42:44.822Z,40.30
2022-12-20T19:44:17.790Z,40.78
2022-12-20T19:45:50.599Z,45.22
2022-12-20T19:47:26.204Z,43.55
2022-12-20T19:49:00.264Z,44.35
2022-12-20T19:50:33.032Z,43.33
2022-12-20T19:52:06.815Z,43.05
2022-12-20T19:53:40.623Z,41.92
2022-12-20T19:55:15.066Z,43.38
2022-12-20T19:56:47.836Z,42.85
2022-12-20T19:58:19.646Z,44.28
2022-12-20T19:59:56.009Z,46.65
2022-12-20T20:01:29.973Z,42.35
2022-12-20T20:03:03.037Z,45.30
2022-12-20T20:04:36.041Z,44.80
2022-12-20T20:06:09.257Z,42.80
2022-12-20T20:07:42.569Z,43.25
2022-12-20T20:09:15.369Z,43.42
2022-12-20T20:10:53.438Z,43.15
2022-12-20T20:12:26.445Z,43.00
2022-12-20T20:14:00.426Z,44.30
2022-12-20T20:15:33.181Z,41.70
2022-12-20T20:17:05.993Z,41.97
2022-12-20T20:18:40.040Z,40.35
2022-12-20T20:20:13.105Z,40.00
2022-12-20T20:21:46.225Z,41.22
2022-12-20T20:23:19.206Z,39.40
2022-12-20T20:24:51.922Z,40.47
2022-12-20T20:26:29.152Z,41.75
2022-12-20T20:28:02.187Z,42.95
2022-12-20T20:29:34.933Z,42.00
2022-12-20T20:31:10.630Z,43.08
2022-12-20T20:32:43.491Z,41.72
2022-12-20T20:34:16.423Z,40.35
2022-12-20T20:35:55.524Z,44.40
2022-12-20T20:37:28.236Z,43.15
2022-12-20T20:39:00.910Z,41.42
2022-12-20T20:40:34.227Z,43.40
2022-12-20T20:42:08.333Z,42.75
2022-12-20T20:43:41.545Z,49.08
2022-12-20T20:45:14.272Z,53.00